<?xml version="1.0" encoding="UTF-8" standalone="no" ?>
<gpx xmlns="http://www.topografix.com/GPX/1/1" xmlns:xsi="http://www.w3.org/2001/XMLSchema-instance" xsi:schemaLocation="http://www.topografix.com/GPX/1/1 http://www.topografix.com/GPX/1/1/gpx.xsd" version="1.1" creator="VisuGPX - https://www.visugpx.com">
  <metadata>
    <name>Pélussin écoles</name>
    <desc><![CDATA[Rando courte à faire en hiver.]]></desc>
  </metadata>
  <trk>
    <name><![CDATA[--Pélussin-- OR-5465999:Pélussin écoles]]></name>
    <trkseg>
      <trkpt lat="45.41758" lon="4.67917">
        <ele>438</ele>
        <time>2015-12-10T11:37:26Z</time>
      </trkpt>
      <trkpt lat="45.41744" lon="4.68022">
        <ele>432</ele>
        <time>2015-12-10T11:39:26Z</time>
      </trkpt>
      <trkpt lat="45.41687" lon="4.67962">
        <ele>429</ele>
        <time>2015-12-10T11:41:26Z</time>
      </trkpt>
      <trkpt lat="45.41647" lon="4.68039">
        <ele>418</ele>
        <time>2015-12-10T11:43:26Z</time>
      </trkpt>
      <trkpt lat="45.41615" lon="4.68305">
        <ele>394</ele>
        <time>2015-12-10T11:45:26Z</time>
      </trkpt>
      <trkpt lat="45.41585" lon="4.68415">
        <ele>381</ele>
        <time>2015-12-10T11:47:26Z</time>
      </trkpt>
      <trkpt lat="45.41523" lon="4.68565">
        <ele>378</ele>
        <time>2015-12-10T11:49:26Z</time>
      </trkpt>
      <trkpt lat="45.41506" lon="4.6861">
        <ele>379</ele>
        <time>2015-12-10T11:51:26Z</time>
      </trkpt>
      <trkpt lat="45.41534" lon="4.68685">
        <ele>381</ele>
        <time>2015-12-10T11:53:26Z</time>
      </trkpt>
      <trkpt lat="45.4154" lon="4.6884">
        <ele>377</ele>
        <time>2015-12-10T11:55:26Z</time>
      </trkpt>
      <trkpt lat="45.41553" lon="4.68904">
        <ele>370</ele>
        <time>2015-12-10T11:57:26Z</time>
      </trkpt>
      <trkpt lat="45.41591" lon="4.69052">
        <ele>367</ele>
        <time>2015-12-10T11:59:26Z</time>
      </trkpt>
      <trkpt lat="45.41604" lon="4.69104">
        <ele>366</ele>
        <time>2015-12-10T12:01:26Z</time>
      </trkpt>
      <trkpt lat="45.41479" lon="4.69312">
        <ele>384</ele>
        <time>2015-12-10T12:03:26Z</time>
      </trkpt>
      <trkpt lat="45.41406" lon="4.69421">
        <ele>388</ele>
        <time>2015-12-10T12:05:26Z</time>
      </trkpt>
      <trkpt lat="45.41346" lon="4.69454">
        <ele>391</ele>
        <time>2015-12-10T12:07:26Z</time>
      </trkpt>
      <trkpt lat="45.4132" lon="4.69614">
        <ele>384</ele>
        <time>2015-12-10T12:09:26Z</time>
      </trkpt>
      <trkpt lat="45.41287" lon="4.69739">
        <ele>377</ele>
        <time>2015-12-10T12:11:26Z</time>
      </trkpt>
      <trkpt lat="45.4124" lon="4.69857">
        <ele>372</ele>
        <time>2015-12-10T12:13:26Z</time>
      </trkpt>
      <trkpt lat="45.41234" lon="4.69898">
        <ele>372</ele>
        <time>2015-12-10T12:15:26Z</time>
      </trkpt>
      <trkpt lat="45.41125" lon="4.69955">
        <ele>361</ele>
        <time>2015-12-10T12:17:26Z</time>
      </trkpt>
      <trkpt lat="45.41055" lon="4.70003">
        <ele>356</ele>
        <time>2015-12-10T12:19:26Z</time>
      </trkpt>
      <trkpt lat="45.40991" lon="4.69968">
        <ele>357</ele>
        <time>2015-12-10T12:21:26Z</time>
      </trkpt>
      <trkpt lat="45.4096" lon="4.70001">
        <ele>357</ele>
        <time>2015-12-10T12:23:26Z</time>
      </trkpt>
      <trkpt lat="45.41" lon="4.70331">
        <ele>349</ele>
        <time>2015-12-10T12:25:26Z</time>
      </trkpt>
      <trkpt lat="45.40834" lon="4.70413">
        <ele>354</ele>
        <time>2015-12-10T12:27:26Z</time>
      </trkpt>
      <trkpt lat="45.40753" lon="4.70419">
        <ele>354</ele>
        <time>2015-12-10T12:29:26Z</time>
      </trkpt>
      <trkpt lat="45.40754" lon="4.7079">
        <ele>344</ele>
        <time>2015-12-10T12:31:26Z</time>
      </trkpt>
      <trkpt lat="45.40622" lon="4.70923">
        <ele>335</ele>
        <time>2015-12-10T12:33:26Z</time>
      </trkpt>
      <trkpt lat="45.40568" lon="4.70739">
        <ele>333</ele>
        <time>2015-12-10T12:35:26Z</time>
      </trkpt>
      <trkpt lat="45.40545" lon="4.70507">
        <ele>337</ele>
        <time>2015-12-10T12:37:26Z</time>
      </trkpt>
      <trkpt lat="45.40462" lon="4.70314">
        <ele>342</ele>
        <time>2015-12-10T12:39:26Z</time>
      </trkpt>
      <trkpt lat="45.40408" lon="4.70121">
        <ele>353</ele>
        <time>2015-12-10T12:41:26Z</time>
      </trkpt>
      <trkpt lat="45.40357" lon="4.69994">
        <ele>357</ele>
        <time>2015-12-10T12:43:26Z</time>
      </trkpt>
      <trkpt lat="45.40294" lon="4.69621">
        <ele>365</ele>
        <time>2015-12-10T12:45:26Z</time>
      </trkpt>
      <trkpt lat="45.40084" lon="4.69383">
        <ele>384</ele>
        <time>2015-12-10T12:47:26Z</time>
      </trkpt>
      <trkpt lat="45.40131" lon="4.69243">
        <ele>391</ele>
        <time>2015-12-10T12:49:26Z</time>
      </trkpt>
      <trkpt lat="45.40143" lon="4.69091">
        <ele>397</ele>
        <time>2015-12-10T12:51:26Z</time>
      </trkpt>
      <trkpt lat="45.40252" lon="4.68943">
        <ele>398</ele>
        <time>2015-12-10T12:53:26Z</time>
      </trkpt>
      <trkpt lat="45.403" lon="4.68838">
        <ele>399</ele>
        <time>2015-12-10T12:55:26Z</time>
      </trkpt>
      <trkpt lat="45.40327" lon="4.68672">
        <ele>412</ele>
        <time>2015-12-10T12:57:26Z</time>
      </trkpt>
      <trkpt lat="45.40264" lon="4.68625">
        <ele>421</ele>
        <time>2015-12-10T12:59:26Z</time>
      </trkpt>
      <trkpt lat="45.40179" lon="4.68359">
        <ele>447</ele>
        <time>2015-12-10T13:01:26Z</time>
      </trkpt>
      <trkpt lat="45.40161" lon="4.6826">
        <ele>454</ele>
        <time>2015-12-10T13:03:26Z</time>
      </trkpt>
      <trkpt lat="45.40107" lon="4.68177">
        <ele>465</ele>
        <time>2015-12-10T13:05:26Z</time>
      </trkpt>
      <trkpt lat="45.40083" lon="4.68044">
        <ele>479</ele>
        <time>2015-12-10T13:07:26Z</time>
      </trkpt>
      <trkpt lat="45.40078" lon="4.67943">
        <ele>489</ele>
        <time>2015-12-10T13:09:26Z</time>
      </trkpt>
      <trkpt lat="45.40214" lon="4.67752">
        <ele>501</ele>
        <time>2015-12-10T13:11:26Z</time>
      </trkpt>
      <trkpt lat="45.40294" lon="4.67666">
        <ele>521</ele>
        <time>2015-12-10T13:13:26Z</time>
      </trkpt>
      <trkpt lat="45.4031" lon="4.67593">
        <ele>534</ele>
        <time>2015-12-10T13:15:26Z</time>
      </trkpt>
      <trkpt lat="45.40316" lon="4.67524">
        <ele>544</ele>
        <time>2015-12-10T13:17:26Z</time>
      </trkpt>
      <trkpt lat="45.40253" lon="4.67117">
        <ele>592</ele>
        <time>2015-12-10T13:19:26Z</time>
      </trkpt>
      <trkpt lat="45.40262" lon="4.67196">
        <ele>584</ele>
        <time>2015-12-10T13:21:26Z</time>
      </trkpt>
      <trkpt lat="45.40262" lon="4.66928">
        <ele>609</ele>
        <time>2015-12-10T13:23:26Z</time>
      </trkpt>
      <trkpt lat="45.40319" lon="4.66866">
        <ele>609</ele>
        <time>2015-12-10T13:25:26Z</time>
      </trkpt>
      <trkpt lat="45.40371" lon="4.66894">
        <ele>606</ele>
        <time>2015-12-10T13:27:26Z</time>
      </trkpt>
      <trkpt lat="45.40378" lon="4.66885">
        <ele>606</ele>
        <time>2015-12-10T13:29:26Z</time>
      </trkpt>
      <trkpt lat="45.40408" lon="4.66878">
        <ele>606</ele>
        <time>2015-12-10T13:31:26Z</time>
      </trkpt>
      <trkpt lat="45.40444" lon="4.66876">
        <ele>605</ele>
        <time>2015-12-10T13:33:26Z</time>
      </trkpt>
      <trkpt lat="45.40478" lon="4.66859">
        <ele>604</ele>
        <time>2015-12-10T13:35:26Z</time>
      </trkpt>
      <trkpt lat="45.40503" lon="4.66891">
        <ele>600</ele>
        <time>2015-12-10T13:37:26Z</time>
      </trkpt>
      <trkpt lat="45.40595" lon="4.66964">
        <ele>586</ele>
        <time>2015-12-10T13:39:26Z</time>
      </trkpt>
      <trkpt lat="45.40675" lon="4.67076">
        <ele>584</ele>
        <time>2015-12-10T13:41:26Z</time>
      </trkpt>
      <trkpt lat="45.40746" lon="4.67271">
        <ele>562</ele>
        <time>2015-12-10T13:43:26Z</time>
      </trkpt>
      <trkpt lat="45.40767" lon="4.67372">
        <ele>547</ele>
        <time>2015-12-10T13:45:26Z</time>
      </trkpt>
      <trkpt lat="45.40784" lon="4.67462">
        <ele>533</ele>
        <time>2015-12-10T13:47:26Z</time>
      </trkpt>
      <trkpt lat="45.40792" lon="4.6761">
        <ele>513</ele>
        <time>2015-12-10T13:49:26Z</time>
      </trkpt>
      <trkpt lat="45.4082" lon="4.67657">
        <ele>510</ele>
        <time>2015-12-10T13:51:26Z</time>
      </trkpt>
      <trkpt lat="45.40795" lon="4.67741">
        <ele>497</ele>
        <time>2015-12-10T13:53:26Z</time>
      </trkpt>
      <trkpt lat="45.40827" lon="4.67771">
        <ele>496</ele>
        <time>2015-12-10T13:55:26Z</time>
      </trkpt>
      <trkpt lat="45.40984" lon="4.67724">
        <ele>485</ele>
        <time>2015-12-10T13:57:26Z</time>
      </trkpt>
      <trkpt lat="45.40993" lon="4.67947">
        <ele>461</ele>
        <time>2015-12-10T13:59:26Z</time>
      </trkpt>
      <trkpt lat="45.40961" lon="4.68069">
        <ele>451</ele>
        <time>2015-12-10T14:01:26Z</time>
      </trkpt>
      <trkpt lat="45.41058" lon="4.68033">
        <ele>455</ele>
        <time>2015-12-10T14:03:26Z</time>
      </trkpt>
      <trkpt lat="45.41133" lon="4.68008">
        <ele>453</ele>
        <time>2015-12-10T14:05:26Z</time>
      </trkpt>
      <trkpt lat="45.41204" lon="4.67941">
        <ele>447</ele>
        <time>2015-12-10T14:07:26Z</time>
      </trkpt>
      <trkpt lat="45.41271" lon="4.67899">
        <ele>436</ele>
        <time>2015-12-10T14:09:26Z</time>
      </trkpt>
      <trkpt lat="45.41306" lon="4.67904">
        <ele>429</ele>
        <time>2015-12-10T14:11:26Z</time>
      </trkpt>
      <trkpt lat="45.41383" lon="4.67831">
        <ele>424</ele>
        <time>2015-12-10T14:13:26Z</time>
      </trkpt>
      <trkpt lat="45.41563" lon="4.67868">
        <ele>413</ele>
        <time>2015-12-10T14:15:26Z</time>
      </trkpt>
      <trkpt lat="45.41725" lon="4.67915">
        <ele>435</ele>
        <time>2015-12-10T14:17:26Z</time>
      </trkpt>
    </trkseg>
  </trk>
</gpx>